createdAt,value
2018-04-13T00:00:31.431Z,38.45
2018-04-13T00:01:41.095Z,38.33
2018-04-13T00:02:49.753Z,38.23
2018-04-13T00:03:59.020Z,38.45
2018-04-13T00:05:08.197Z,38.45
2018-04-13T00:06:17.981Z,38.33
2018-04-13T00:07:27.132Z,38.25
2018-04-13T00:08:36.298Z,38.35
2018-04-13T00:09:45.978Z,38.33
2018-04-13T00:10:55.906Z,38.45
2018-04-13T00:12:05.327Z,38.35
2018-04-13T00:13:14.731Z,38.35
2018-04-13T00:14:24.143Z,38.45
2018-04-13T00:15:32.792Z,38.33
2018-04-13T00:16:41.953Z,38.35
2018-04-13T00:17:51.874Z,38.35
2018-04-13T00:19:01.029Z,38.23
2018-04-13T00:20:10.436Z,38.25
2018-04-13T00:21:19.583Z,38.35
2018-04-13T00:22:29.258Z,38.35
2018-04-13T00:23:38.938Z,38.35
2018-04-13T00:24:48.876Z,38.33
2018-04-13T00:25:58.276Z,38.45
2018-04-13T00:27:08.202Z,38.33
2018-04-13T00:28:17.874Z,38.25
2018-04-13T00:29:26.762Z,38.25
2018-04-13T00:30:36.182Z,38.45
2018-04-13T00:31:45.858Z,38.45
2018-04-13T00:32:55.514Z,38.33
2018-04-13T00:34:04.655Z,38.35
2018-04-13T00:35:13.800Z,38.33
2018-04-13T00:36:23.477Z,38.35
2018-04-13T00:37:32.629Z,38.25
2018-04-13T00:38:41.773Z,38.25
2018-04-13T00:39:51.210Z,38.23
2018-04-13T00:41:00.865Z,38.35
2018-04-13T00:42:10.264Z,38.33
2018-04-13T00:43:20.199Z,38.43
2018-04-13T00:44:29.604Z,38.43
2018-04-13T00:45:39.007Z,38.43
2018-04-13T00:46:48.678Z,38.43
2018-04-13T00:47:58.090Z,38.33
2018-04-13T00:49:07.505Z,38.14
2018-04-13T00:50:16.905Z,38.25
2018-04-13T00:51:26.587Z,38.33
2018-04-13T00:52:35.990Z,38.35
2018-04-13T00:53:45.671Z,38.43
2018-04-13T00:54:54.812Z,38.33
2018-04-13T00:56:03.704Z,38.33
2018-04-13T00:57:13.363Z,38.33
2018-04-13T00:58:22.767Z,38.33
2018-04-13T00:59:32.164Z,38.33
2018-04-13T01:00:41.822Z,38.23
2018-04-13T01:01:51.224Z,38.33
2018-04-13T01:03:00.368Z,38.23
2018-04-13T01:04:10.044Z,38.23
2018-04-13T01:05:19.713Z,38.23
2018-04-13T01:06:28.864Z,38.23
2018-04-13T01:07:38.006Z,38.33
2018-04-13T01:08:47.701Z,38.43
2018-04-13T01:09:56.586Z,38.33
2018-04-13T01:11:06.248Z,38.43
2018-04-13T01:12:15.404Z,38.33
2018-04-13T01:13:24.552Z,38.23
2018-04-13T01:14:34.204Z,38.43
2018-04-13T01:15:43.877Z,38.43
2018-04-13T01:16:52.764Z,38.14
2018-04-13T01:18:02.184Z,38.23
2018-04-13T01:19:11.358Z,38.23
2018-04-13T01:20:20.276Z,38.23
2018-04-13T01:21:29.688Z,38.14
2018-04-13T01:22:39.365Z,38.33
2018-04-13T01:23:49.054Z,38.14
2018-04-13T01:24:58.220Z,38.14
2018-04-13T01:26:08.154Z,38.23
2018-04-13T01:27:17.815Z,38.14
2018-04-13T01:28:27.238Z,38.23
2018-04-13T01:29:36.650Z,38.14
2018-04-13T01:30:46.689Z,38.33
2018-04-13T01:31:55.864Z,38.33
2018-04-13T01:33:04.773Z,38.33
2018-04-13T01:34:14.185Z,38.33
2018-04-13T01:35:23.631Z,38.14
2018-04-13T01:36:32.783Z,38.14
2018-04-13T01:37:42.178Z,38.14
2018-04-13T01:38:52.089Z,38.33
2018-04-13T01:40:01.525Z,38.23
2018-04-13T01:41:11.220Z,38.33
2018-04-13T01:42:20.371Z,38.43
2018-04-13T01:43:29.517Z,38.14
2018-04-13T01:44:38.932Z,38.14
2018-04-13T01:45:48.066Z,38.23
2018-04-13T01:46:57.814Z,38.33
2018-04-13T01:48:07.493Z,38.14
2018-04-13T01:49:16.642Z,38.33
2018-04-13T01:50:26.296Z,38.33
2018-04-13T01:51:35.716Z,38.14
2018-04-13T01:52:45.117Z,38.04
2018-04-13T01:53:54.521Z,38.33
2018-04-13T01:55:03.725Z,38.43
2018-04-13T01:56:12.861Z,38.33
2018-04-13T01:57:22.517Z,38.23
2018-04-13T01:58:32.177Z,38.33
2018-04-13T01:59:41.603Z,38.33
2018-04-13T02:00:51.060Z,38.33
2018-04-13T02:02:00.207Z,38.23
2018-04-13T02:03:09.863Z,38.14
2018-04-13T02:04:19.012Z,38.33
2018-04-13T02:05:27.649Z,38.04
2018-04-13T02:06:37.052Z,38.23
2018-04-13T02:07:46.785Z,38.53
2018-04-13T02:08:55.673Z,38.33
2018-04-13T02:10:05.595Z,38.33
2018-04-13T02:11:14.757Z,38.23
2018-04-13T02:12:24.937Z,38.23
2018-04-13T02:13:34.355Z,38.33
2018-04-13T02:14:44.022Z,38.43
2018-04-13T02:15:53.431Z,38.43
2018-04-13T02:17:02.584Z,38.43
2018-04-13T02:18:11.734Z,38.43
2018-04-13T02:19:21.139Z,38.33
2018-04-13T02:20:30.286Z,38.23
2018-04-13T02:21:39.449Z,38.33
2018-04-13T02:22:49.383Z,38.33
2018-04-13T02:23:59.091Z,38.33
2018-04-13T02:25:08.528Z,38.23
2018-04-13T02:26:17.694Z,38.33
2018-04-13T02:27:26.871Z,38.23
2018-04-13T02:28:36.606Z,38.33
2018-04-13T02:29:46.262Z,38.33
2018-04-13T02:30:55.932Z,38.33
2018-04-13T02:32:05.339Z,38.33
2018-04-13T02:33:14.486Z,38.33
2018-04-13T02:34:24.137Z,38.33
2018-04-13T02:35:34.019Z,38.23
2018-04-13T02:36:43.174Z,38.33
2018-04-13T02:37:53.123Z,38.33
2018-04-13T02:39:03.069Z,38.14
2018-04-13T02:40:12.744Z,38.23
2018-04-13T02:41:22.184Z,38.33
2018-04-13T02:42:31.861Z,38.43
2018-04-13T02:43:41.269Z,38.33
2018-04-13T02:44:50.689Z,38.33
2018-04-13T02:46:00.361Z,38.23
2018-04-13T02:47:09.524Z,38.23
2018-04-13T02:48:18.710Z,38.23
2018-04-13T02:49:28.381Z,38.23
2018-04-13T02:50:37.782Z,38.33
2018-04-13T02:51:47.472Z,38.33
2018-04-13T02:52:56.886Z,38.23
2018-04-13T02:54:06.320Z,38.33
2018-04-13T02:55:15.977Z,38.23
2018-04-13T02:56:25.375Z,38.33
2018-04-13T02:57:35.038Z,38.23
2018-04-13T02:58:44.700Z,38.23
2018-04-13T02:59:53.887Z,38.23
2018-04-13T03:01:03.033Z,38.23
2018-04-13T03:02:12.436Z,38.33
2018-04-13T03:03:21.846Z,38.33
2018-04-13T03:04:31.271Z,38.33
2018-04-13T03:05:40.931Z,38.33
2018-04-13T03:06:50.338Z,38.33
2018-04-13T03:08:00.009Z,38.33
2018-04-13T03:09:09.415Z,38.23
2018-04-13T03:10:18.827Z,38.33
2018-04-13T03:11:28.563Z,38.33
2018-04-13T03:12:38.515Z,38.23
2018-04-13T03:13:47.663Z,38.33
2018-04-13T03:14:57.096Z,38.33
2018-04-13T03:16:06.766Z,38.33
2018-04-13T03:17:16.715Z,38.23
2018-04-13T03:18:25.868Z,38.23
2018-04-13T03:19:35.281Z,38.33
2018-04-13T03:20:44.434Z,38.33
2018-04-13T03:21:54.085Z,38.33
2018-04-13T03:23:03.290Z,38.23
2018-04-13T03:24:12.515Z,38.33
2018-04-13T03:25:22.180Z,38.43
2018-04-13T03:26:30.828Z,38.33
2018-04-13T03:27:39.986Z,38.33
2018-04-13T03:28:49.404Z,38.33
2018-04-13T03:29:59.082Z,38.33
2018-04-13T03:31:08.492Z,38.33
2018-04-13T03:32:17.660Z,38.23
2018-04-13T03:33:27.372Z,38.33
2018-04-13T03:34:37.047Z,38.33
2018-04-13T03:35:46.744Z,38.43
2018-04-13T03:36:56.679Z,38.33
2018-04-13T03:38:06.107Z,38.53
2018-04-13T03:39:15.770Z,38.43
2018-04-13T03:40:24.931Z,38.23
2018-04-13T03:41:34.105Z,38.43
2018-04-13T03:42:43.768Z,38.33
2018-04-13T03:43:53.194Z,38.43
2018-04-13T03:45:02.334Z,38.33
2018-04-13T03:46:11.489Z,38.43
2018-04-13T03:47:21.167Z,38.33
2018-04-13T03:48:30.579Z,38.51
2018-04-13T03:49:39.980Z,38.53
2018-04-13T03:50:49.379Z,38.43
2018-04-13T03:51:58.528Z,38.33
2018-04-13T03:53:07.686Z,38.31
2018-04-13T03:54:16.848Z,38.43
2018-04-13T03:55:26.295Z,38.33
2018-04-13T03:56:35.955Z,38.33
2018-04-13T03:57:45.622Z,38.33
2018-04-13T03:58:55.039Z,38.43
2018-04-13T04:00:04.205Z,38.33
2018-04-13T04:01:13.380Z,38.33
2018-04-13T04:02:22.805Z,38.33
2018-04-13T04:03:31.971Z,38.53
2018-04-13T04:04:41.662Z,38.33
2018-04-13T04:05:51.062Z,38.53
2018-04-13T04:07:00.221Z,38.33
2018-04-13T04:08:09.363Z,38.53
2018-04-13T04:09:18.271Z,38.33
2018-04-13T04:10:27.927Z,38.31
2018-04-13T04:11:37.076Z,38.31
2018-04-13T04:12:46.247Z,38.33
2018-04-13T04:13:55.388Z,38.31
2018-04-13T04:15:05.090Z,38.33
2018-04-13T04:16:14.525Z,38.53
2018-04-13T04:17:24.518Z,38.41
2018-04-13T04:18:33.682Z,38.41
2018-04-13T04:19:43.092Z,38.33
2018-04-13T04:20:52.495Z,38.21
2018-04-13T04:22:01.419Z,38.6
2018-04-13T04:23:10.568Z,38.6
2018-04-13T04:24:20.083Z,38.6
2018-04-13T04:25:28.989Z,38.33
2018-04-13T04:26:38.398Z,38.33
2018-04-13T04:27:47.313Z,38.53
2018-04-13T04:28:57.228Z,38.6
2018-04-13T04:30:06.657Z,38.53
2018-04-13T04:31:15.814Z,38.53
2018-04-13T04:32:24.966Z,38.43
2018-04-13T04:33:34.362Z,38.7
2018-04-13T04:34:44.306Z,38.6
2018-04-13T04:35:53.252Z,38.53
2018-04-13T04:37:02.668Z,38.31
2018-04-13T04:38:11.585Z,38.41
2018-04-13T04:39:20.744Z,38.43
2018-04-13T04:40:30.664Z,38.33
2018-04-13T04:41:40.356Z,38.33
2018-04-13T04:42:50.021Z,38.33
2018-04-13T04:43:59.430Z,38.33
2018-04-13T04:45:08.625Z,38.33
2018-04-13T04:46:17.515Z,38.23
2018-04-13T04:47:26.944Z,38.14
2018-04-13T04:48:36.075Z,38.04
2018-04-13T04:49:45.482Z,38.23
2018-04-13T04:50:54.906Z,38.14
2018-04-13T04:52:04.282Z,38.14
2018-04-13T04:53:13.948Z,38.23
2018-04-13T04:54:23.609Z,38.04
2018-04-13T04:55:33.009Z,38.04
2018-04-13T04:56:42.439Z,38.04
2018-04-13T04:57:51.404Z,37.85
2018-04-13T04:59:00.581Z,38.04
2018-04-13T05:00:10.009Z,38.04
2018-04-13T05:01:19.163Z,37.95
2018-04-13T05:02:28.565Z,38.14
2018-04-13T05:03:37.993Z,37.85
2018-04-13T05:04:47.424Z,37.85
2018-04-13T05:05:57.397Z,38.04
2018-04-13T05:07:06.556Z,38.04
2018-04-13T05:08:15.962Z,38.04
2018-04-13T05:09:25.401Z,38.14
2018-04-13T05:10:34.295Z,38.14
2018-04-13T05:11:43.966Z,37.85
2018-04-13T05:12:54.001Z,37.85
2018-04-13T05:14:03.435Z,37.85
2018-04-13T05:15:12.852Z,37.95
2018-04-13T05:16:22.509Z,37.75
2018-04-13T05:17:31.915Z,38.04
2018-04-13T05:18:41.574Z,38.04
2018-04-13T05:19:51.001Z,37.95
2018-04-13T05:21:00.664Z,38.04
2018-04-13T05:22:10.093Z,37.95
2018-04-13T05:23:19.264Z,38.04
2018-04-13T05:24:28.939Z,38.04
2018-04-13T05:25:38.845Z,38.04
2018-04-13T05:26:48.266Z,38.04
2018-04-13T05:27:57.681Z,38.14
2018-04-13T05:29:06.580Z,38.14
2018-04-13T05:30:16.604Z,38.14
2018-04-13T05:31:26.271Z,38.31
2018-04-13T05:32:35.950Z,38.12
2018-04-13T05:33:45.355Z,38.12
2018-04-13T05:34:55.027Z,38.12
2018-04-13T05:36:04.437Z,38.62
2018-04-13T05:37:13.591Z,38.21
2018-04-13T05:38:23.002Z,38.21
2018-04-13T05:39:32.662Z,38.7
2018-04-13T05:40:42.586Z,38.31
2018-04-13T05:41:51.769Z,38.41
2018-04-13T05:43:00.655Z,38.41
2018-04-13T05:44:10.064Z,38.41
2018-04-13T05:45:19.507Z,38.41
2018-04-13T05:46:29.176Z,38.41
2018-04-13T05:47:38.348Z,38.6
2018-04-13T05:48:47.504Z,38.41
2018-04-13T05:49:56.916Z,38.31
2018-04-13T05:51:06.080Z,38.31
2018-04-13T05:52:15.507Z,38.7
2018-04-13T05:53:24.966Z,38.6
2018-04-13T05:54:34.630Z,38.41
2018-04-13T05:55:44.302Z,38.6
2018-04-13T05:56:53.961Z,38.6
2018-04-13T05:58:03.640Z,38.41
2018-04-13T05:59:12.784Z,38.31
2018-04-13T06:00:22.449Z,38.21
2018-04-13T06:01:32.393Z,38.21
2018-04-13T06:02:42.067Z,38.12
2018-04-13T06:03:51.215Z,38.02
2018-04-13T06:05:00.396Z,37.93
2018-04-13T06:06:09.649Z,38.02
2018-04-13T06:07:19.337Z,38.12
2018-04-13T06:08:28.488Z,38.02
2018-04-13T06:09:37.409Z,38.12
2018-04-13T06:10:47.095Z,38.12
2018-04-13T06:11:56.519Z,37.73
2018-04-13T06:13:05.922Z,37.83
2018-04-13T06:14:15.326Z,37.83
2018-04-13T06:15:24.732Z,38.02
2018-04-13T06:16:34.153Z,37.73
2018-04-13T06:17:43.579Z,37.63
2018-04-13T06:18:53.082Z,37.73
2018-04-13T06:20:02.898Z,37.63
2018-04-13T06:21:12.326Z,37.73
2018-04-13T06:22:21.723Z,37.73
2018-04-13T06:23:30.881Z,37.63
2018-04-13T06:24:40.074Z,37.83
2018-04-13T06:25:49.500Z,37.75
2018-04-13T06:26:58.925Z,37.93
2018-04-13T06:28:08.346Z,37.73
2018-04-13T06:29:18.029Z,37.93
2018-04-13T06:30:27.439Z,37.75
2018-04-13T06:31:36.348Z,37.73
2018-04-13T06:32:45.771Z,37.65
2018-04-13T06:33:55.440Z,37.63
2018-04-13T06:35:04.863Z,37.65
2018-04-13T06:36:13.762Z,37.85
2018-04-13T06:37:23.457Z,37.85
2018-04-13T06:38:32.642Z,37.75
2018-04-13T06:39:42.040Z,37.75
2018-04-13T06:40:51.467Z,37.65
2018-04-13T06:42:00.641Z,37.95
2018-04-13T06:43:10.585Z,37.85
2018-04-13T06:44:19.496Z,37.85
2018-04-13T06:45:29.185Z,37.83
2018-04-13T06:46:38.619Z,37.93
2018-04-13T06:47:48.035Z,37.85
2018-04-13T06:48:57.287Z,37.93
2018-04-13T06:50:06.224Z,38.04
2018-04-13T06:51:16.164Z,37.85
2018-04-13T06:52:25.336Z,37.85
2018-04-13T06:53:34.762Z,37.95
2018-04-13T06:54:43.909Z,37.83
2018-04-13T06:55:53.578Z,37.95
2018-04-13T06:57:02.996Z,37.65
2018-04-13T06:58:12.427Z,37.85
2018-04-13T06:59:21.850Z,37.95
2018-04-13T07:00:31.099Z,37.75
2018-04-13T07:01:40.548Z,38.04
2018-04-13T07:02:49.966Z,37.85
2018-04-13T07:03:59.671Z,37.95
2018-04-13T07:05:08.830Z,38.04
2018-04-13T07:06:18.241Z,37.95
2018-04-13T07:07:27.541Z,37.95
2018-04-13T07:08:37.523Z,38.04
2018-04-13T07:09:46.928Z,37.75
2018-04-13T07:10:56.095Z,37.95
2018-04-13T07:12:05.809Z,38.04
2018-04-13T07:13:15.543Z,37.85
2018-04-13T07:14:24.991Z,37.95
2018-04-13T07:15:34.425Z,37.95
2018-04-13T07:16:43.859Z,37.85
2018-04-13T07:17:52.764Z,37.95
2018-04-13T07:19:02.172Z,37.65
2018-04-13T07:20:11.846Z,37.95
2018-04-13T07:21:21.316Z,37.65
2018-04-13T07:22:30.989Z,37.75
2018-04-13T07:23:40.401Z,38.04
2018-04-13T07:24:49.581Z,37.65
2018-04-13T07:25:58.545Z,37.65
2018-04-13T07:27:07.710Z,37.85
2018-04-13T07:28:16.593Z,37.65
2018-04-13T07:29:25.513Z,37.65
2018-04-13T07:30:34.461Z,37.75
2018-04-13T07:31:43.634Z,37.75
2018-04-13T07:32:52.544Z,37.65
2018-04-13T07:34:01.953Z,38.04
2018-04-13T07:35:12.093Z,37.65
2018-04-13T07:36:22.233Z,37.65
2018-04-13T07:37:31.407Z,37.56
2018-04-13T07:38:40.667Z,37.56
2018-04-13T07:39:49.856Z,37.85
2018-04-13T07:41:00.092Z,37.65
2018-04-13T07:42:09.256Z,37.75
2018-04-13T07:43:18.687Z,37.85
2018-04-13T07:44:27.865Z,37.75
2018-04-13T07:45:37.291Z,37.56
2018-04-13T07:46:46.445Z,37.65
2018-04-13T07:47:55.653Z,37.65
2018-04-13T07:49:05.331Z,37.65
2018-04-13T07:50:15.443Z,37.75
2018-04-13T07:51:25.264Z,37.95
2018-04-13T07:52:34.432Z,37.65
2018-04-13T07:53:44.144Z,37.75
2018-04-13T07:54:53.618Z,37.56
2018-04-13T07:56:02.770Z,37.75
2018-04-13T07:57:11.714Z,37.85
2018-04-13T07:58:20.284Z,37.56
2018-04-13T07:59:29.460Z,37.65
2018-04-13T08:00:38.621Z,37.95
2018-04-13T08:01:49.150Z,37.95
2018-04-13T08:02:58.925Z,37.65
2018-04-13T08:04:08.085Z,37.75
2018-04-13T08:05:17.273Z,37.95
2018-04-13T08:06:27.223Z,37.65
2018-04-13T08:07:36.731Z,37.65
2018-04-13T08:08:46.257Z,37.75
2018-04-13T08:09:55.960Z,37.65
2018-04-13T08:11:05.152Z,37.65
2018-04-13T08:12:13.811Z,37.65
2018-04-13T08:13:24.006Z,37.56
2018-04-13T08:14:33.397Z,37.75
2018-04-13T08:15:42.811Z,37.85
2018-04-13T08:16:52.222Z,37.65
2018-04-13T08:18:01.492Z,37.95
2018-04-13T08:19:10.720Z,37.65
2018-04-13T08:20:19.624Z,37.65
2018-04-13T08:21:28.530Z,37.75
2018-04-13T08:22:37.716Z,37.85
2018-04-13T08:23:46.891Z,37.75
2018-04-13T08:24:55.556Z,37.75
2018-04-13T08:26:04.995Z,37.75
2018-04-13T08:27:14.661Z,37.75
2018-04-13T08:28:23.815Z,37.75
2018-04-13T08:29:32.727Z,37.65
2018-04-13T08:30:41.707Z,37.75
2018-04-13T08:31:50.934Z,37.56
2018-04-13T08:33:00.960Z,37.75
2018-04-13T08:34:10.644Z,37.65
2018-04-13T08:35:20.095Z,37.65
2018-04-13T08:36:29.776Z,37.75
2018-04-13T08:37:39.211Z,37.65
2018-04-13T08:38:48.652Z,37.65
2018-04-13T08:39:57.546Z,37.75
2018-04-13T08:41:06.482Z,37.75
2018-04-13T08:42:16.201Z,37.65
2018-04-13T08:43:25.477Z,38.04
2018-04-13T08:44:35.406Z,37.75
2018-04-13T08:45:44.961Z,37.65
2018-04-13T08:46:54.133Z,37.75
2018-04-13T08:48:03.694Z,37.65
2018-04-13T08:49:13.377Z,37.85
2018-04-13T08:50:23.608Z,37.75
2018-04-13T08:51:32.757Z,37.56
2018-04-13T08:52:41.713Z,37.65
2018-04-13T08:53:51.273Z,37.75
2018-04-13T08:55:00.781Z,37.56
2018-04-13T08:56:10.367Z,37.75
2018-04-13T08:57:20.350Z,37.75
2018-04-13T08:58:29.791Z,37.75
2018-04-13T08:59:38.945Z,37.75
2018-04-13T09:00:48.391Z,37.95
2018-04-13T09:01:58.441Z,37.75
2018-04-13T09:03:07.353Z,37.75
2018-04-13T09:04:16.252Z,37.75
2018-04-13T09:05:25.684Z,37.65
2018-04-13T09:06:35.431Z,38.14
2018-04-13T09:07:45.295Z,37.75
2018-04-13T09:08:55.008Z,37.75
2018-04-13T09:10:04.427Z,37.56
2018-04-13T09:11:13.602Z,37.75
2018-04-13T09:12:23.036Z,37.85
2018-04-13T09:13:32.469Z,37.75
2018-04-13T09:14:41.914Z,37.65
2018-04-13T09:15:51.601Z,37.75
2018-04-13T09:17:00.779Z,37.75
2018-04-13T09:18:10.489Z,37.65
2018-04-13T09:19:19.109Z,37.75
2018-04-13T09:20:28.538Z,37.75
2018-04-13T09:21:37.944Z,37.65
2018-04-13T09:22:46.838Z,37.85
2018-04-13T09:23:56.262Z,37.75
2018-04-13T09:25:05.182Z,37.85
2018-04-13T09:26:14.887Z,37.75
2018-04-13T09:27:24.341Z,37.75
2018-04-13T09:28:33.769Z,37.75
2018-04-13T09:29:43.424Z,37.75
2018-04-13T09:30:52.898Z,37.75
2018-04-13T09:32:01.798Z,37.75
2018-04-13T09:33:11.210Z,37.75
2018-04-13T09:34:20.876Z,37.75
2018-04-13T09:35:30.308Z,37.85
2018-04-13T09:36:39.334Z,37.75
2018-04-13T09:37:48.482Z,37.65
2018-04-13T09:38:58.409Z,37.65
2018-04-13T09:40:07.840Z,37.75
2018-04-13T09:41:17.011Z,37.75
2018-04-13T09:42:26.698Z,37.75
2018-04-13T09:43:36.099Z,37.75
2018-04-13T09:44:45.504Z,37.75
2018-04-13T09:45:55.192Z,37.65
2018-04-13T09:47:04.656Z,37.65
2018-04-13T09:48:13.799Z,37.85
2018-04-13T09:49:23.489Z,37.75
2018-04-13T09:50:33.199Z,37.75
2018-04-13T09:51:42.352Z,37.75
2018-04-13T09:52:51.765Z,37.75
2018-04-13T09:54:00.935Z,37.65
2018-04-13T09:55:10.871Z,37.85
2018-04-13T09:56:20.563Z,37.85
2018-04-13T09:57:29.986Z,37.85
2018-04-13T09:58:39.400Z,37.85
2018-04-13T09:59:48.822Z,37.65
2018-04-13T10:00:58.496Z,37.75
2018-04-13T10:02:07.674Z,37.65
2018-04-13T10:03:17.081Z,37.75
2018-04-13T10:04:26.491Z,37.75
2018-04-13T10:05:35.962Z,37.75
2018-04-13T10:06:45.393Z,37.65
2018-04-13T10:07:54.857Z,37.65
2018-04-13T10:09:04.590Z,37.65
2018-04-13T10:10:13.748Z,37.75
2018-04-13T10:11:23.446Z,37.75
2018-04-13T10:12:33.124Z,37.75
2018-04-13T10:13:42.537Z,37.75
2018-04-13T10:14:51.952Z,37.75
2018-04-13T10:16:01.371Z,37.75
2018-04-13T10:17:10.277Z,37.75
2018-04-13T10:18:19.706Z,37.75
2018-04-13T10:19:28.868Z,37.75
2018-04-13T10:20:38.038Z,37.75
2018-04-13T10:21:46.965Z,37.85
2018-04-13T10:22:56.639Z,37.75
2018-04-13T10:24:06.052Z,37.75
2018-04-13T10:25:15.215Z,37.75
2018-04-13T10:26:24.629Z,37.75
2018-04-13T10:27:34.108Z,37.75
2018-04-13T10:28:43.293Z,37.65
2018-04-13T10:29:52.454Z,37.65
2018-04-13T10:31:01.607Z,37.65
2018-04-13T10:32:11.020Z,37.75
2018-04-13T10:33:20.432Z,37.75
2018-04-13T10:34:30.111Z,37.75
2018-04-13T10:35:39.525Z,37.65
2018-04-13T10:36:48.965Z,37.75
2018-04-13T10:37:58.644Z,37.75
2018-04-13T10:39:08.058Z,37.75
2018-04-13T10:40:17.996Z,37.75
2018-04-13T10:41:26.895Z,37.75
2018-04-13T10:42:36.313Z,37.65
2018-04-13T10:43:45.211Z,37.75
2018-04-13T10:44:54.385Z,37.95
2018-04-13T10:46:03.793Z,37.75
2018-04-13T10:47:12.970Z,37.65
2018-04-13T10:48:22.123Z,37.65
2018-04-13T10:49:31.616Z,37.75
2018-04-13T10:50:41.018Z,37.75
2018-04-13T10:51:50.198Z,37.75
2018-04-13T10:52:59.894Z,37.65
2018-04-13T10:54:08.796Z,37.75
2018-04-13T10:55:18.225Z,37.95
2018-04-13T10:56:27.675Z,37.75
2018-04-13T10:57:36.901Z,37.75
2018-04-13T10:58:46.615Z,37.75
2018-04-13T10:59:55.769Z,37.75
2018-04-13T11:01:05.203Z,37.75
2018-04-13T11:02:14.368Z,37.75
2018-04-13T11:03:23.789Z,37.65
2018-04-13T11:04:32.445Z,37.65
2018-04-13T11:05:41.844Z,37.75
2018-04-13T11:06:51.016Z,37.75
2018-04-13T11:08:00.727Z,37.75
2018-04-13T11:09:09.890Z,37.75
2018-04-13T11:10:19.385Z,37.95
2018-04-13T11:11:28.928Z,37.75
2018-04-13T11:12:38.363Z,37.75
2018-04-13T11:13:47.270Z,37.75
2018-04-13T11:14:56.429Z,37.75
2018-04-13T11:16:05.590Z,37.75
2018-04-13T11:17:15.259Z,37.65
2018-04-13T11:18:24.719Z,37.75
2018-04-13T11:19:34.158Z,37.65
2018-04-13T11:20:43.842Z,37.65
2018-04-13T11:21:53.253Z,37.75
2018-04-13T11:23:02.444Z,37.75
2018-04-13T11:24:12.400Z,37.95
2018-04-13T11:25:21.553Z,37.65
2018-04-13T11:26:31.467Z,37.65
2018-04-13T11:27:40.876Z,37.75
2018-04-13T11:28:50.300Z,37.65
2018-04-13T11:29:59.712Z,37.75
2018-04-13T11:31:08.871Z,37.75
2018-04-13T11:32:18.548Z,37.75
2018-04-13T11:33:27.475Z,37.85
2018-04-13T11:34:36.639Z,37.65
2018-04-13T11:35:45.803Z,37.75
2018-04-13T11:36:55.468Z,37.85
2018-04-13T11:38:04.914Z,37.85
2018-04-13T11:39:14.340Z,37.75
2018-04-13T11:40:23.495Z,37.65
2018-04-13T11:41:32.976Z,37.75
2018-04-13T11:42:42.492Z,37.75
2018-04-13T11:43:52.216Z,37.75
2018-04-13T11:45:01.892Z,37.75
2018-04-13T11:46:10.797Z,37.75
2018-04-13T11:47:20.221Z,37.85
2018-04-13T11:48:29.130Z,37.65
2018-04-13T11:49:38.538Z,37.75
2018-04-13T11:50:48.480Z,37.95
2018-04-13T11:51:58.147Z,37.75
2018-04-13T11:53:07.833Z,37.75
2018-04-13T11:54:17.512Z,37.65
2018-04-13T11:55:26.413Z,37.65
2018-04-13T11:56:35.841Z,37.75
2018-04-13T11:57:45.286Z,37.75
2018-04-13T11:58:54.213Z,37.75
2018-04-13T12:00:03.629Z,37.75
2018-04-13T12:01:13.048Z,37.75
2018-04-13T12:02:22.196Z,37.65
2018-04-13T12:03:31.633Z,37.75
2018-04-13T12:04:41.061Z,37.85
2018-04-13T12:05:50.816Z,37.75
2018-04-13T12:07:00.228Z,37.75
2018-04-13T12:08:09.394Z,37.85
2018-04-13T12:09:18.831Z,37.75
2018-04-13T12:10:28.509Z,37.75
2018-04-13T12:11:37.656Z,37.75
2018-04-13T12:12:46.813Z,37.75
2018-04-13T12:13:56.242Z,37.75
2018-04-13T12:15:05.666Z,37.75
2018-04-13T12:16:14.577Z,37.75
2018-04-13T12:17:23.746Z,37.75
2018-04-13T12:18:33.594Z,37.75
2018-04-13T12:19:43.019Z,37.75
2018-04-13T12:20:52.976Z,37.85
2018-04-13T12:22:02.656Z,37.75
2018-04-13T12:23:12.092Z,37.75
2018-04-13T12:24:21.532Z,37.75
2018-04-13T12:25:30.691Z,37.75
2018-04-13T12:26:40.129Z,37.75
2018-04-13T12:27:49.029Z,37.75
2018-04-13T12:28:58.712Z,37.85
2018-04-13T12:30:08.121Z,37.75
2018-04-13T12:31:17.352Z,37.75
2018-04-13T12:32:27.154Z,37.85
2018-04-13T12:33:36.602Z,37.75
2018-04-13T12:34:46.269Z,37.75
2018-04-13T12:35:55.871Z,37.85
2018-04-13T12:37:05.552Z,37.75
2018-04-13T12:38:14.194Z,37.75
2018-04-13T12:39:23.410Z,37.85
2018-04-13T12:40:32.887Z,37.85
2018-04-13T12:41:42.061Z,37.85
2018-04-13T12:42:51.482Z,37.85
2018-04-13T12:44:00.656Z,37.85
2018-04-13T12:45:10.123Z,37.85
2018-04-13T12:46:19.546Z,37.75
2018-04-13T12:47:28.711Z,37.85
2018-04-13T12:48:38.398Z,37.75
2018-04-13T12:49:47.819Z,37.85
2018-04-13T12:50:57.250Z,37.75
2018-04-13T12:52:06.404Z,37.85
2018-04-13T12:53:15.321Z,37.75
2018-04-13T12:54:25.547Z,37.85
2018-04-13T12:55:35.528Z,37.75
2018-04-13T12:56:45.246Z,37.75
2018-04-13T12:57:54.471Z,37.75
2018-04-13T12:59:03.364Z,37.85
2018-04-13T13:00:12.520Z,37.75
2018-04-13T13:01:21.435Z,37.85
2018-04-13T13:02:31.114Z,37.75
2018-04-13T13:03:40.293Z,37.75
2018-04-13T13:04:49.716Z,37.85
2018-04-13T13:05:58.862Z,37.85
2018-04-13T13:07:08.020Z,37.75
2018-04-13T13:08:17.723Z,37.75
2018-04-13T13:09:27.403Z,37.75
2018-04-13T13:10:36.812Z,37.85
2018-04-13T13:11:46.249Z,37.75
2018-04-13T13:12:55.670Z,37.85
2018-04-13T13:14:04.828Z,37.85
2018-04-13T13:15:13.992Z,37.75
2018-04-13T13:16:23.416Z,37.75
2018-04-13T13:17:33.087Z,37.75
2018-04-13T13:18:42.234Z,37.75
2018-04-13T13:19:51.380Z,37.75
2018-04-13T13:21:01.046Z,37.75
2018-04-13T13:22:09.986Z,37.85
2018-04-13T13:23:19.648Z,37.85
2018-04-13T13:24:28.807Z,37.75
2018-04-13T13:25:37.975Z,37.75
2018-04-13T13:26:46.870Z,37.75
2018-04-13T13:27:56.038Z,37.56
2018-04-13T13:29:04.986Z,37.85
2018-04-13T13:30:14.665Z,37.85
2018-04-13T13:31:24.091Z,37.75
2018-04-13T13:32:33.280Z,37.85
2018-04-13T13:33:42.720Z,37.95
2018-04-13T13:34:51.875Z,38.04
2018-04-13T13:36:01.564Z,38.04
2018-04-13T13:37:10.984Z,37.46
2018-04-13T13:38:20.446Z,37.56
2018-04-13T13:39:30.406Z,38.04
2018-04-13T13:40:39.567Z,37.56
2018-04-13T13:41:48.991Z,37.46
2018-04-13T13:42:58.731Z,38.04
2018-04-13T13:44:07.985Z,37.85
2018-04-13T13:45:17.689Z,37.85
2018-04-13T13:46:27.375Z,37.85
2018-04-13T13:47:36.796Z,37.75
2018-04-13T13:48:46.241Z,37.85
2018-04-13T13:49:55.911Z,37.85
2018-04-13T13:51:05.085Z,37.85
2018-04-13T13:52:14.264Z,38.04
2018-04-13T13:53:23.952Z,37.95
2018-04-13T13:54:33.903Z,37.95
2018-04-13T13:55:43.332Z,37.85
2018-04-13T13:56:52.749Z,37.85
2018-04-13T13:58:02.176Z,37.95
2018-04-13T13:59:11.345Z,37.56
2018-04-13T14:00:20.765Z,37.85
2018-04-13T14:01:30.438Z,37.85
2018-04-13T14:02:39.359Z,37.95
2018-04-13T14:03:49.041Z,37.95
2018-04-13T14:04:58.499Z,37.56
2018-04-13T14:06:07.899Z,37.85
2018-04-13T14:07:17.587Z,37.85
2018-04-13T14:08:27.266Z,37.95
2018-04-13T14:09:36.728Z,37.56
2018-04-13T14:10:46.145Z,37.85
2018-04-13T14:11:55.834Z,37.95
2018-04-13T14:13:05.822Z,37.75
2018-04-13T14:14:14.979Z,37.85
2018-04-13T14:15:24.389Z,37.85
2018-04-13T14:16:33.572Z,37.95
2018-04-13T14:17:43.016Z,37.95
2018-04-13T14:18:52.469Z,37.85
2018-04-13T14:20:02.153Z,37.85
2018-04-13T14:21:11.327Z,37.85
2018-04-13T14:22:20.752Z,37.85
2018-04-13T14:23:30.696Z,37.85
2018-04-13T14:24:40.382Z,37.95
2018-04-13T14:25:50.067Z,37.75
2018-04-13T14:26:59.490Z,37.75
2018-04-13T14:28:09.172Z,37.85
2018-04-13T14:29:18.350Z,37.85
2018-04-13T14:30:28.205Z,37.75
2018-04-13T14:31:37.613Z,37.75
2018-04-13T14:32:47.293Z,37.85
2018-04-13T14:33:56.971Z,37.75
2018-04-13T14:35:06.415Z,37.75
2018-04-13T14:36:16.105Z,37.75
2018-04-13T14:37:25.779Z,37.95
2018-04-13T14:38:35.709Z,37.56
2018-04-13T14:39:45.217Z,37.75
2018-04-13T14:40:54.438Z,37.85
2018-04-13T14:42:04.121Z,37.75
2018-04-13T14:43:14.063Z,37.85
2018-04-13T14:44:23.464Z,37.75
2018-04-13T14:45:33.145Z,37.85
2018-04-13T14:46:42.809Z,37.95
2018-04-13T14:47:51.698Z,37.85
2018-04-13T14:49:01.381Z,37.85
2018-04-13T14:50:10.809Z,37.95
2018-04-13T14:51:20.244Z,37.75
2018-04-13T14:52:29.399Z,37.75
2018-04-13T14:53:38.625Z,37.85
2018-04-13T14:54:48.057Z,37.85